createdAt,value
2019-05-09T00:01:14.355Z,10.72
2019-05-09T00:03:44.450Z,10.61
2019-05-09T00:06:13.918Z,10.54
2019-05-09T00:08:44.118Z,10.39
2019-05-09T00:11:14.808Z,10.45
2019-05-09T00:13:44.057Z,10.57
2019-05-09T00:16:14.521Z,10.60
2019-05-09T00:18:44.241Z,10.64
2019-05-09T00:21:18.324Z,10.69
2019-05-09T00:23:47.470Z,10.58
2019-05-09T00:26:16.690Z,10.48
2019-05-09T00:28:48.840Z,10.57
2019-05-09T00:31:37.044Z,10.46
2019-05-09T00:34:09.281Z,10.38
2019-05-09T00:36:38.451Z,10.42
2019-05-09T00:39:07.710Z,10.39
2019-05-09T00:41:36.853Z,10.30
2019-05-09T00:44:15.975Z,10.33
2019-05-09T00:46:54.702Z,10.31
2019-05-09T00:49:25.392Z,10.15
2019-05-09T00:51:54.612Z,10.06
2019-05-09T00:54:24.115Z,10.02
2019-05-09T00:56:54.039Z,10.03
2019-05-09T00:59:24.089Z,10.15
2019-05-09T01:01:54.274Z,10.29
2019-05-09T01:04:24.254Z,10.29
2019-05-09T01:06:54.125Z,10.34
2019-05-09T01:09:24.287Z,10.19
2019-05-09T01:11:53.572Z,10.12
2019-05-09T01:14:23.439Z,10.25
2019-05-09T01:16:53.491Z,10.28
2019-05-09T01:19:23.413Z,10.34
2019-05-09T01:21:54.204Z,10.36
2019-05-09T01:24:23.627Z,10.41
2019-05-09T01:26:54.209Z,10.45
2019-05-09T01:29:23.698Z,10.51
2019-05-09T01:31:55.000Z,10.47
2019-05-09T01:34:27.903Z,10.50
2019-05-09T01:37:11.148Z,10.53
2019-05-09T01:39:40.344Z,10.49
2019-05-09T01:42:09.623Z,10.41
2019-05-09T01:44:38.814Z,10.31
2019-05-09T01:47:07.941Z,10.21
2019-05-09T01:49:37.112Z,10.21
2019-05-09T01:52:06.378Z,10.23
2019-05-09T01:54:37.433Z,10.11
2019-05-09T01:57:06.617Z,10.09
2019-05-09T01:59:35.760Z,10.10
2019-05-09T02:02:09.052Z,10.07
2019-05-09T02:04:35.953Z,10.04
2019-05-09T02:07:05.150Z,10.02
2019-05-09T02:09:34.582Z,10.07
2019-05-09T02:12:04.307Z,10.13
2019-05-09T02:14:39.984Z,10.17
2019-05-09T02:17:16.301Z,10.13
2019-05-09T02:19:45.447Z,10.21
2019-05-09T02:22:34.437Z,10.24
2019-05-09T02:25:04.687Z,10.27
2019-05-09T02:27:33.855Z,10.32
2019-05-09T02:30:05.887Z,10.36
2019-05-09T02:32:34.805Z,10.36
2019-05-09T02:35:05.165Z,10.36
2019-05-09T02:37:34.514Z,10.38
2019-05-09T02:40:03.922Z,10.39
2019-05-09T02:42:35.229Z,10.38
2019-05-09T02:45:04.404Z,10.37
2019-05-09T02:47:33.681Z,10.39
2019-05-09T02:50:02.812Z,10.41
2019-05-09T02:52:31.994Z,10.44
2019-05-09T02:55:01.138Z,10.47
2019-05-09T02:57:30.287Z,10.44
2019-05-09T03:00:20.108Z,10.41
2019-05-09T03:02:55.764Z,10.35
2019-05-09T03:05:24.948Z,10.35
2019-05-09T03:07:54.127Z,10.35
2019-05-09T03:10:23.781Z,10.34
2019-05-09T03:12:53.359Z,10.33
2019-05-09T03:15:22.485Z,10.32
2019-05-09T03:17:51.610Z,10.33
2019-05-09T03:20:39.377Z,10.36
2019-05-09T03:23:09.337Z,10.35
2019-05-09T03:25:40.753Z,10.40
2019-05-09T03:28:28.428Z,10.43
2019-05-09T03:30:59.486Z,10.41
2019-05-09T03:33:30.781Z,10.43
2019-05-09T03:35:59.665Z,10.43
2019-05-09T03:38:28.888Z,10.41
2019-05-09T03:40:58.148Z,10.40
2019-05-09T03:43:27.559Z,10.43
2019-05-09T03:46:07.813Z,10.43
2019-05-09T03:48:41.901Z,10.35
2019-05-09T03:51:11.057Z,10.33
2019-05-09T03:53:40.205Z,10.30
2019-05-09T03:56:11.852Z,10.32
2019-05-09T03:58:41.006Z,10.26
2019-05-09T04:01:10.850Z,10.23
2019-05-09T04:03:40.289Z,10.18
2019-05-09T04:06:09.615Z,10.19
2019-05-09T04:08:38.779Z,10.11
2019-05-09T04:11:08.609Z,10.09
2019-05-09T04:13:43.227Z,10.06
2019-05-09T04:16:12.386Z,10.06
2019-05-09T04:18:41.574Z,10.00
2019-05-09T04:21:10.729Z,10.00
2019-05-09T04:23:39.887Z,9.94
2019-05-09T04:26:17.619Z,9.90
2019-05-09T04:28:47.226Z,9.89
2019-05-09T04:31:17.815Z,9.89
2019-05-09T04:33:47.399Z,9.86
2019-05-09T04:36:18.342Z,9.86
2019-05-09T04:38:47.915Z,9.83
2019-05-09T04:41:23.599Z,9.83
2019-05-09T04:43:48.719Z,9.82
2019-05-09T04:46:24.102Z,9.80
2019-05-09T04:48:48.849Z,9.74
2019-05-09T04:51:18.162Z,9.73
2019-05-09T04:53:48.035Z,9.72
2019-05-09T04:56:24.972Z,9.68
2019-05-09T04:58:54.136Z,9.63
2019-05-09T05:01:49.476Z,9.61
2019-05-09T05:04:19.711Z,9.62
2019-05-09T05:06:48.900Z,9.66
2019-05-09T05:09:20.990Z,9.66
2019-05-09T05:11:49.170Z,9.70
2019-05-09T05:14:24.415Z,9.76
2019-05-09T05:16:55.747Z,9.78
2019-05-09T05:19:28.607Z,9.87
2019-05-09T05:22:01.409Z,9.93
2019-05-09T05:24:49.544Z,10.00
2019-05-09T05:27:19.078Z,10.08
2019-05-09T05:29:48.306Z,10.05
2019-05-09T05:32:24.681Z,10.17
2019-05-09T05:35:14.698Z,10.22
2019-05-09T05:37:43.874Z,10.32
2019-05-09T05:40:13.346Z,10.35
2019-05-09T05:42:42.566Z,10.34
2019-05-09T05:45:11.700Z,10.45
2019-05-09T05:47:54.051Z,10.56
2019-05-09T05:50:23.250Z,10.58
2019-05-09T05:52:52.443Z,10.67
2019-05-09T05:56:39.092Z,10.79
2019-05-09T05:59:08.571Z,10.77
2019-05-09T06:01:38.314Z,10.85
2019-05-09T06:04:07.691Z,10.93
2019-05-09T06:06:37.523Z,10.98
2019-05-09T06:09:08.372Z,11.02
2019-05-09T06:11:38.380Z,11.07
2019-05-09T06:14:11.621Z,11.14
2019-05-09T06:16:38.568Z,11.19
2019-05-09T06:19:08.989Z,11.20
2019-05-09T06:21:38.304Z,11.30
2019-05-09T06:24:08.586Z,11.37
2019-05-09T06:26:37.849Z,11.43
2019-05-09T06:29:08.090Z,11.49
2019-05-09T06:31:37.671Z,11.55
2019-05-09T06:34:08.356Z,11.59
2019-05-09T06:36:39.096Z,11.63
2019-05-09T06:39:10.099Z,11.66
2019-05-09T06:41:39.320Z,11.70
2019-05-09T06:44:28.238Z,11.76
2019-05-09T06:47:05.120Z,11.80
2019-05-09T06:49:39.315Z,11.85
2019-05-09T06:52:08.889Z,11.88
2019-05-09T06:54:41.257Z,11.99
2019-05-09T06:57:09.044Z,12.04
2019-05-09T06:59:38.308Z,12.08
2019-05-09T07:02:32.539Z,12.06
2019-05-09T07:05:36.032Z,12.10
2019-05-09T07:08:24.188Z,12.15
2019-05-09T07:10:53.383Z,12.21
2019-05-09T07:13:22.540Z,12.31
2019-05-09T07:15:51.731Z,12.31
2019-05-09T07:18:20.920Z,12.39
2019-05-09T07:20:50.110Z,12.44
2019-05-09T07:23:19.302Z,12.44
2019-05-09T07:26:07.797Z,12.46
2019-05-09T07:28:37.727Z,12.52
2019-05-09T07:31:12.963Z,12.50
2019-05-09T07:33:47.799Z,12.59
2019-05-09T07:36:18.905Z,12.66
2019-05-09T07:38:47.961Z,12.72
2019-05-09T07:41:17.828Z,12.83
2019-05-09T07:43:47.891Z,12.92
2019-05-09T07:46:22.997Z,12.95
2019-05-09T07:48:52.455Z,13.03
2019-05-09T07:51:21.675Z,13.10
2019-05-09T07:53:50.965Z,13.21
2019-05-09T07:56:20.164Z,13.27
2019-05-09T07:58:49.365Z,13.40
2019-05-09T08:01:19.167Z,13.47
2019-05-09T08:03:49.149Z,13.62
2019-05-09T08:06:18.618Z,13.67
2019-05-09T08:08:47.862Z,13.74
2019-05-09T08:11:17.965Z,13.77
2019-05-09T08:13:48.614Z,13.80
2019-05-09T08:16:18.752Z,13.68
2019-05-09T08:18:48.383Z,13.65
2019-05-09T08:21:18.158Z,13.80
2019-05-09T08:23:48.526Z,13.80
2019-05-09T08:26:18.829Z,13.84
2019-05-09T08:28:48.270Z,13.99
2019-05-09T08:31:17.931Z,14.16
2019-05-09T08:33:48.480Z,14.14
2019-05-09T08:36:20.163Z,14.11
2019-05-09T08:38:48.801Z,14.20
2019-05-09T08:41:18.789Z,14.33
2019-05-09T08:43:48.466Z,14.52
2019-05-09T08:46:18.175Z,14.66
2019-05-09T08:48:48.476Z,14.90
2019-05-09T08:51:23.409Z,14.97
2019-05-09T08:53:52.598Z,15.02
2019-05-09T08:56:21.848Z,15.13
2019-05-09T08:58:51.013Z,15.14
2019-05-09T09:01:30.783Z,15.04
2019-05-09T09:03:51.280Z,15.17
2019-05-09T09:06:20.594Z,15.24
2019-05-09T09:08:49.780Z,15.21
2019-05-09T09:11:19.101Z,15.26
2019-05-09T09:13:48.511Z,15.20
2019-05-09T09:16:21.559Z,15.09
2019-05-09T09:18:48.639Z,15.14
2019-05-09T09:21:18.445Z,15.04
2019-05-09T09:23:50.622Z,14.95
2019-05-09T09:26:18.561Z,14.85
2019-05-09T09:28:48.414Z,14.84
2019-05-09T09:31:18.145Z,14.86
2019-05-09T09:33:48.156Z,14.79
2019-05-09T09:36:17.993Z,14.85
2019-05-09T09:38:47.984Z,14.89
2019-05-09T09:41:19.118Z,14.90
2019-05-09T09:43:48.238Z,14.95
2019-05-09T09:46:18.225Z,14.96
2019-05-09T09:48:48.140Z,15.03
2019-05-09T09:51:18.664Z,15.21
2019-05-09T09:53:48.900Z,15.35
2019-05-09T09:56:22.443Z,15.48
2019-05-09T09:58:57.894Z,15.61
2019-05-09T10:01:32.477Z,15.67
2019-05-09T10:04:19.556Z,15.69
2019-05-09T10:06:39.918Z,15.73
2019-05-09T10:09:09.760Z,15.83
2019-05-09T10:11:38.939Z,16.01
2019-05-09T10:14:10.389Z,16.16
2019-05-09T10:16:51.847Z,16.14
2019-05-09T10:19:39.062Z,16.26
2019-05-09T10:22:10.200Z,16.26
2019-05-09T10:24:39.337Z,16.35
2019-05-09T10:27:15.248Z,16.36
2019-05-09T10:29:44.381Z,16.46
2019-05-09T10:32:14.467Z,16.35
2019-05-09T10:34:43.601Z,16.39
2019-05-09T10:37:12.748Z,16.30
2019-05-09T10:39:41.898Z,16.37
2019-05-09T10:42:23.775Z,16.29
2019-05-09T10:45:01.711Z,16.14
2019-05-09T10:47:32.468Z,16.17
2019-05-09T10:50:01.641Z,16.20
2019-05-09T10:52:30.807Z,15.92
2019-05-09T10:54:59.884Z,15.90
2019-05-09T10:57:31.448Z,15.96
2019-05-09T10:59:59.914Z,15.71
2019-05-09T11:02:29.150Z,15.70
2019-05-09T11:04:58.394Z,15.47
2019-05-09T11:07:28.971Z,15.46
2019-05-09T11:09:58.908Z,15.22
2019-05-09T11:12:28.428Z,14.95
2019-05-09T11:14:59.475Z,14.63
2019-05-09T11:17:28.762Z,14.60
2019-05-09T11:19:58.796Z,14.58
2019-05-09T11:22:29.198Z,14.73
2019-05-09T11:24:58.775Z,14.61
2019-05-09T11:27:29.164Z,14.46
2019-05-09T11:29:58.637Z,14.13
2019-05-09T11:32:28.024Z,14.00
2019-05-09T11:34:57.750Z,13.96
2019-05-09T11:37:27.034Z,13.88
2019-05-09T11:39:58.034Z,13.89
2019-05-09T11:42:28.558Z,14.05
2019-05-09T11:44:58.192Z,14.20
2019-05-09T11:47:37.941Z,14.45
2019-05-09T11:49:58.452Z,14.63
2019-05-09T11:52:28.889Z,14.82
2019-05-09T11:54:58.299Z,14.81
2019-05-09T11:57:31.117Z,14.93
2019-05-09T11:59:58.341Z,15.08
2019-05-09T12:02:28.036Z,15.13
2019-05-09T12:04:57.286Z,15.34
2019-05-09T12:07:28.765Z,15.59
2019-05-09T12:09:58.970Z,15.72
2019-05-09T12:12:28.454Z,16.02
2019-05-09T12:14:58.217Z,16.22
2019-05-09T12:17:40.719Z,16.44
2019-05-09T12:20:09.455Z,16.61
2019-05-09T12:22:29.231Z,16.79
2019-05-09T12:24:59.250Z,16.94
2019-05-09T12:27:28.558Z,16.90
2019-05-09T12:29:58.269Z,16.88
2019-05-09T12:32:28.483Z,17.07
2019-05-09T12:34:59.063Z,17.31
2019-05-09T12:37:28.354Z,17.41
2019-05-09T12:39:58.544Z,17.52
2019-05-09T12:42:29.197Z,17.63
2019-05-09T12:44:59.175Z,17.68
2019-05-09T12:47:29.078Z,17.72
2019-05-09T12:50:02.464Z,17.84
2019-05-09T12:52:29.328Z,17.96
2019-05-09T12:54:58.562Z,18.15
2019-05-09T12:57:28.886Z,17.90
2019-05-09T12:59:58.840Z,18.05
2019-05-09T13:02:28.121Z,18.24
2019-05-09T13:04:57.475Z,18.31
2019-05-09T13:07:29.734Z,18.43
2019-05-09T13:09:58.224Z,18.51
2019-05-09T13:12:29.081Z,18.49
2019-05-09T13:14:58.473Z,18.45
2019-05-09T13:17:33.120Z,18.57
2019-05-09T13:20:02.815Z,18.83
2019-05-09T13:22:31.980Z,18.75
2019-05-09T13:25:02.964Z,18.72
2019-05-09T13:27:32.235Z,18.63
2019-05-09T13:30:02.140Z,18.73
2019-05-09T13:32:31.538Z,18.67
2019-05-09T13:35:00.669Z,18.48
2019-05-09T13:37:29.849Z,18.53
2019-05-09T13:39:58.974Z,18.80
2019-05-09T13:42:28.524Z,19.14
2019-05-09T13:44:58.206Z,19.43
2019-05-09T13:47:28.006Z,19.15
2019-05-09T13:49:59.140Z,19.09
2019-05-09T13:52:28.434Z,18.71
2019-05-09T13:54:58.662Z,18.81
2019-05-09T13:57:28.042Z,18.94
2019-05-09T13:59:58.510Z,18.88
2019-05-09T14:02:29.373Z,18.94
2019-05-09T14:04:58.782Z,18.60
2019-05-09T14:07:28.074Z,18.59
2019-05-09T14:09:57.182Z,18.23
2019-05-09T14:12:28.779Z,17.92
2019-05-09T14:14:58.243Z,17.99
2019-05-09T14:17:44.901Z,18.03
2019-05-09T14:19:58.463Z,18.12
2019-05-09T14:22:27.669Z,18.42
2019-05-09T14:24:58.532Z,18.83
2019-05-09T14:27:28.528Z,19.04
2019-05-09T14:29:59.270Z,18.81
2019-05-09T14:32:31.176Z,18.88
2019-05-09T14:34:59.634Z,18.61
2019-05-09T14:37:28.785Z,18.80
2019-05-09T14:40:03.063Z,18.33
2019-05-09T14:42:29.090Z,18.51
2019-05-09T14:44:58.601Z,18.45
2019-05-09T14:47:27.903Z,18.89
2019-05-09T14:49:59.230Z,18.92
2019-05-09T14:52:28.374Z,19.19
2019-05-09T14:54:58.197Z,19.46
2019-05-09T14:57:28.589Z,19.16
2019-05-09T14:59:58.457Z,18.96
2019-05-09T15:02:27.689Z,18.52
2019-05-09T15:04:58.618Z,18.42
2019-05-09T15:07:30.733Z,18.45
2019-05-09T15:10:00.058Z,18.49
2019-05-09T15:12:29.382Z,17.98
2019-05-09T15:14:59.295Z,17.92
2019-05-09T15:17:28.923Z,18.36
2019-05-09T15:20:00.579Z,19.09
2019-05-09T15:22:29.612Z,19.48
2019-05-09T15:24:59.228Z,19.92
2019-05-09T15:27:28.797Z,19.53
2019-05-09T15:29:58.663Z,20.31
2019-05-09T15:32:28.369Z,20.78
2019-05-09T15:34:57.867Z,21.26
2019-05-09T15:37:28.550Z,21.91
2019-05-09T15:39:58.462Z,22.25
2019-05-09T15:42:30.500Z,22.10
2019-05-09T15:45:00.533Z,22.06
2019-05-09T15:47:33.314Z,21.84
2019-05-09T15:50:15.547Z,21.57
2019-05-09T15:52:33.547Z,20.35
2019-05-09T15:55:03.009Z,19.29
2019-05-09T15:57:32.510Z,18.92
2019-05-09T16:00:01.796Z,18.73
2019-05-09T16:02:33.850Z,18.55
2019-05-09T16:05:01.828Z,18.76
2019-05-09T16:07:31.267Z,19.69
2019-05-09T16:10:00.797Z,20.60
2019-05-09T16:12:30.095Z,20.33
2019-05-09T16:14:59.417Z,20.67
2019-05-09T16:17:29.059Z,20.52
2019-05-09T16:19:58.424Z,20.04
2019-05-09T16:22:28.470Z,19.63
2019-05-09T16:24:58.000Z,19.23
2019-05-09T16:27:27.654Z,19.14
2019-05-09T16:29:57.972Z,18.76
2019-05-09T16:32:27.241Z,18.16
2019-05-09T16:34:56.554Z,18.22
2019-05-09T16:37:28.212Z,18.34
2019-05-09T16:39:57.743Z,18.12
2019-05-09T16:42:27.563Z,18.02
2019-05-09T16:44:59.372Z,17.65
2019-05-09T16:47:28.460Z,17.34
2019-05-09T16:49:58.064Z,17.04
2019-05-09T16:52:27.307Z,16.97
2019-05-09T16:55:08.250Z,16.95
2019-05-09T16:57:37.799Z,16.90
2019-05-09T17:00:09.370Z,16.96
2019-05-09T17:02:38.549Z,16.85
2019-05-09T17:05:08.457Z,16.94
2019-05-09T17:07:38.538Z,16.91
2019-05-09T17:10:10.058Z,16.64
2019-05-09T17:12:39.257Z,16.68
2019-05-09T17:15:09.266Z,16.66
2019-05-09T17:17:38.789Z,16.47
2019-05-09T17:20:10.190Z,16.40
2019-05-09T17:23:10.407Z,16.30
2019-05-09T17:25:28.370Z,16.37
2019-05-09T17:27:59.463Z,16.33
2019-05-09T17:30:28.894Z,16.19
2019-05-09T17:32:59.108Z,15.87
2019-05-09T17:35:28.506Z,15.93
2019-05-09T17:37:57.790Z,15.94
2019-05-09T17:40:28.127Z,16.03
2019-05-09T17:42:59.092Z,15.85
2019-05-09T17:45:28.806Z,15.86
2019-05-09T17:47:58.468Z,15.77
2019-05-09T17:50:28.596Z,15.70
2019-05-09T17:52:58.026Z,15.53
2019-05-09T17:55:27.357Z,15.41
2019-05-09T17:57:58.634Z,15.36
2019-05-09T18:00:28.049Z,15.19
2019-05-09T18:02:58.064Z,15.11
2019-05-09T18:05:27.586Z,15.11
2019-05-09T18:07:58.007Z,15.00
2019-05-09T18:10:27.525Z,15.00
2019-05-09T18:12:58.829Z,14.89
2019-05-09T18:15:28.288Z,14.88
2019-05-09T18:17:58.637Z,14.92
2019-05-09T18:20:28.907Z,14.83
2019-05-09T18:22:58.694Z,14.91
2019-05-09T18:25:28.515Z,14.75
2019-05-09T18:27:57.974Z,14.76
2019-05-09T18:30:28.033Z,14.67
2019-05-09T18:33:03.725Z,14.60
2019-05-09T18:35:33.484Z,14.61
2019-05-09T18:38:03.110Z,14.61
2019-05-09T18:40:32.562Z,14.45
2019-05-09T18:43:02.164Z,14.43
2019-05-09T18:45:31.535Z,14.45
2019-05-09T18:48:01.055Z,14.48
2019-05-09T18:50:30.463Z,14.50
2019-05-09T18:53:00.091Z,14.52
2019-05-09T18:55:29.364Z,14.57
2019-05-09T18:57:58.737Z,14.60
2019-05-09T19:00:28.294Z,14.54
2019-05-09T19:02:57.882Z,14.50
2019-05-09T19:05:27.187Z,14.49
2019-05-09T19:07:56.789Z,14.48
2019-05-09T19:10:26.376Z,14.49
2019-05-09T19:12:55.767Z,14.46
2019-05-09T19:15:35.381Z,14.32
2019-05-09T19:18:14.477Z,14.29
2019-05-09T19:21:01.357Z,14.26
2019-05-09T19:23:30.705Z,14.33
2019-05-09T19:26:06.299Z,14.28
2019-05-09T19:28:35.760Z,14.19
2019-05-09T19:31:05.116Z,14.12
2019-05-09T19:33:34.562Z,14.15
2019-05-09T19:36:03.989Z,14.06
2019-05-09T19:38:33.365Z,14.09
2019-05-09T19:41:02.696Z,14.13
2019-05-09T19:43:32.083Z,14.18
2019-05-09T19:46:01.421Z,14.10
2019-05-09T19:48:30.734Z,14.04
2019-05-09T19:51:00.366Z,14.09
2019-05-09T19:53:29.694Z,14.11
2019-05-09T19:56:00.401Z,13.96
2019-05-09T19:58:30.087Z,13.90
2019-05-09T20:00:59.859Z,13.89
2019-05-09T20:03:29.184Z,13.86
2019-05-09T20:05:58.431Z,13.84
2019-05-09T20:08:27.791Z,13.83
2019-05-09T20:11:21.877Z,13.80
2019-05-09T20:14:06.255Z,13.80
2019-05-09T20:16:37.456Z,13.71
2019-05-09T20:19:06.911Z,13.77
2019-05-09T20:21:36.231Z,13.59
2019-05-09T20:24:08.866Z,13.56
2019-05-09T20:26:37.027Z,13.56
2019-05-09T20:29:06.476Z,13.40
2019-05-09T20:31:36.284Z,13.41
2019-05-09T20:34:05.763Z,13.37
2019-05-09T20:36:35.444Z,13.31
2019-05-09T20:39:08.581Z,13.23
2019-05-09T20:41:38.782Z,13.24
2019-05-09T20:44:08.249Z,13.27
2019-05-09T20:46:37.946Z,13.30
2019-05-09T20:49:07.621Z,13.27
2019-05-09T20:51:37.224Z,13.11
2019-05-09T20:54:19.972Z,13.13
2019-05-09T20:56:38.281Z,13.07
2019-05-09T20:59:07.843Z,13.01
2019-05-09T21:01:37.485Z,13.05
2019-05-09T21:04:06.948Z,13.07
2019-05-09T21:06:36.838Z,13.06
2019-05-09T21:09:07.417Z,13.11
2019-05-09T21:11:37.032Z,13.08
2019-05-09T21:14:06.513Z,13.00
2019-05-09T21:16:35.930Z,13.04
2019-05-09T21:19:05.555Z,13.04
2019-05-09T21:21:35.149Z,13.06
2019-05-09T21:24:04.548Z,12.98
2019-05-09T21:26:34.044Z,12.92
2019-05-09T21:29:03.484Z,12.91
2019-05-09T21:31:32.984Z,12.96
2019-05-09T21:34:02.374Z,12.90
2019-05-09T21:36:31.879Z,12.93
2019-05-09T21:39:01.157Z,12.77
2019-05-09T21:41:30.324Z,12.80
2019-05-09T21:44:00.254Z,12.87
2019-05-09T21:46:29.889Z,12.85
2019-05-09T21:48:59.171Z,12.75
2019-05-09T21:51:28.352Z,12.76
2019-05-09T21:53:57.508Z,12.76
2019-05-09T21:56:27.276Z,12.70
2019-05-09T21:58:56.450Z,12.70
2019-05-09T22:01:25.961Z,12.65
2019-05-09T22:03:55.182Z,12.68
2019-05-09T22:06:24.418Z,12.62
2019-05-09T22:08:53.623Z,12.65
2019-05-09T22:11:22.987Z,12.63
2019-05-09T22:13:54.746Z,12.58
2019-05-09T22:16:30.905Z,12.58
2019-05-09T22:19:00.112Z,12.52
2019-05-09T22:21:29.326Z,12.39
2019-05-09T22:23:58.586Z,12.47
2019-05-09T22:26:27.796Z,12.35
2019-05-09T22:28:57.246Z,12.34
2019-05-09T22:31:26.426Z,12.31
2019-05-09T22:33:55.645Z,12.41
2019-05-09T22:36:24.892Z,12.48
2019-05-09T22:38:54.153Z,12.47
2019-05-09T22:41:23.336Z,12.48
2019-05-09T22:43:52.536Z,12.42
2019-05-09T22:46:21.819Z,12.35
2019-05-09T22:48:50.906Z,12.31
2019-05-09T22:51:20.059Z,12.29
2019-05-09T22:53:49.269Z,12.36
2019-05-09T22:56:18.587Z,12.31
2019-05-09T22:58:47.697Z,12.28
2019-05-09T23:01:16.841Z,12.35
2019-05-09T23:03:45.941Z,12.25
2019-05-09T23:06:15.037Z,12.23
2019-05-09T23:08:44.125Z,12.26
2019-05-09T23:11:13.261Z,12.24
2019-05-09T23:13:54.485Z,12.26
2019-05-09T23:16:24.907Z,12.21
2019-05-09T23:18:54.493Z,12.03
2019-05-09T23:21:25.725Z,12.11
2019-05-09T23:24:27.525Z,12.07
2019-05-09T23:26:44.685Z,12.13
2019-05-09T23:29:13.910Z,12.11
2019-05-09T23:32:00.696Z,12.13
2019-05-09T23:34:29.885Z,12.12
2019-05-09T23:36:59.039Z,12.15
2019-05-09T23:39:30.980Z,12.08
2019-05-09T23:42:00.138Z,12.09
2019-05-09T23:44:29.230Z,12.06
2019-05-09T23:46:58.370Z,12.13
2019-05-09T23:49:27.478Z,12.19
2019-05-09T23:51:56.634Z,12.14
2019-05-09T23:54:46.346Z,12.08
2019-05-09T23:57:32.250Z,12.06
